sensor_id;sensor_type;location;lat;lon;timestamp;pressure;altitude;pressure_sealevel;temperature;humidity
8416;BME280;4245;42.120;24.732;2023-07-31T00:02:04;98673.66;;;26.09;49.78
8416;BME280;4245;42.120;24.732;2023-07-31T00:04:31;98677.91;;;25.98;51.70
8416;BME280;4245;42.120;24.732;2023-07-31T00:06:58;98682.88;;;26.08;50.47
8416;BME280;4245;42.120;24.732;2023-07-31T00:09:25;98686.84;;;26.05;50.36
8416;BME280;4245;42.120;24.732;2023-07-31T00:11:52;98685.03;;;25.99;50.91
8416;BME280;4245;42.120;24.732;2023-07-31T00:14:21;98687.94;;;26.04;50.78
8416;BME280;4245;42.120;24.732;2023-07-31T00:16:47;98688.06;;;25.84;51.57
8416;BME280;4245;42.120;24.732;2023-07-31T00:19:14;98698.88;;;25.53;52.43
8416;BME280;4245;42.120;24.732;2023-07-31T00:21:41;98703.03;;;25.62;52.69
8416;BME280;4245;42.120;24.732;2023-07-31T00:24:08;98694.50;;;25.59;52.77
8416;BME280;4245;42.120;24.732;2023-07-31T00:26:36;98703.47;;;25.52;53.29
8416;BME280;4245;42.120;24.732;2023-07-31T00:29:03;98708.16;;;25.39;54.63
8416;BME280;4245;42.120;24.732;2023-07-31T00:31:32;98704.13;;;25.48;54.31
8416;BME280;4245;42.120;24.732;2023-07-31T00:33:59;98703.47;;;25.52;54.06
8416;BME280;4245;42.120;24.732;2023-07-31T00:36:26;98701.66;;;25.40;54.40
8416;BME280;4245;42.120;24.732;2023-07-31T00:38:53;98695.41;;;25.39;54.55
8416;BME280;4245;42.120;24.732;2023-07-31T00:41:19;98698.50;;;25.43;54.25
8416;BME280;4245;42.120;24.732;2023-07-31T00:43:46;98700.44;;;25.36;55.00
8416;BME280;4245;42.120;24.732;2023-07-31T00:46:13;98698.28;;;25.51;54.24
8416;BME280;4245;42.120;24.732;2023-07-31T00:48:42;98703.38;;;25.28;54.86
8416;BME280;4245;42.120;24.732;2023-07-31T00:51:10;98708.63;;;25.23;54.78
8416;BME280;4245;42.120;24.732;2023-07-31T00:53:38;98705.03;;;25.35;54.48
8416;BME280;4245;42.120;24.732;2023-07-31T00:56:05;98705.25;;;25.27;55.17
8416;BME280;4245;42.120;24.732;2023-07-31T00:58:33;98705.53;;;25.13;55.82
8416;BME280;4245;42.120;24.732;2023-07-31T01:01:00;98705.38;;;25.07;56.35
8416;BME280;4245;42.120;24.732;2023-07-31T01:03:26;98713.69;;;25.13;56.50
8416;BME280;4245;42.120;24.732;2023-07-31T01:06:04;98716.44;;;24.99;56.86
8416;BME280;4245;42.120;24.732;2023-07-31T01:08:39;98717.28;;;25.06;56.81
8416;BME280;4245;42.120;24.732;2023-07-31T01:11:14;98723.38;;;24.89;57.74
8416;BME280;4245;42.120;24.732;2023-07-31T01:13:42;98725.03;;;24.90;57.39
8416;BME280;4245;42.120;24.732;2023-07-31T01:16:10;98722.31;;;24.83;58.13
8416;BME280;4245;42.120;24.732;2023-07-31T01:18:37;98716.28;;;24.61;59.02
8416;BME280;4245;42.120;24.732;2023-07-31T01:21:21;98718.38;;;24.73;58.38
8416;BME280;4245;42.120;24.732;2023-07-31T01:26:55;98705.84;;;24.45;59.17
8416;BME280;4245;42.120;24.732;2023-07-31T01:29:28;98710.66;;;24.37;59.27
8416;BME280;4245;42.120;24.732;2023-07-31T01:32:01;98712.75;;;24.28;60.14
8416;BME280;4245;42.120;24.732;2023-07-31T01:34:29;98709.63;;;24.38;59.91
8416;BME280;4245;42.120;24.732;2023-07-31T01:36:57;98701.06;;;24.41;59.04
8416;BME280;4245;42.120;24.732;2023-07-31T01:39:24;98710.88;;;24.48;60.06
8416;BME280;4245;42.120;24.732;2023-07-31T01:41:52;98714.63;;;24.47;59.90
8416;BME280;4245;42.120;24.732;2023-07-31T01:44:20;98708.97;;;24.62;58.96
8416;BME280;4245;42.120;24.732;2023-07-31T01:46:47;98710.84;;;24.68;58.76
8416;BME280;4245;42.120;24.732;2023-07-31T01:49:14;98705.81;;;24.72;59.09
8416;BME280;4245;42.120;24.732;2023-07-31T01:51:41;98701.03;;;24.87;57.64
8416;BME280;4245;42.120;24.732;2023-07-31T01:54:08;98703.09;;;24.98;58.48
8416;BME280;4245;42.120;24.732;2023-07-31T01:56:35;98709.91;;;25.20;57.58
8416;BME280;4245;42.120;24.732;2023-07-31T01:59:03;98702.53;;;25.27;56.99
8416;BME280;4245;42.120;24.732;2023-07-31T02:01:30;98699.56;;;25.42;56.31
8416;BME280;4245;42.120;24.732;2023-07-31T02:03:57;98709.38;;;25.43;54.93
8416;BME280;4245;42.120;24.732;2023-07-31T02:06:24;98716.00;;;25.16;55.53
8416;BME280;4245;42.120;24.732;2023-07-31T02:08:51;98711.06;;;24.93;56.13
8416;BME280;4245;42.120;24.732;2023-07-31T02:11:18;98715.00;;;24.97;56.12
8416;BME280;4245;42.120;24.732;2023-07-31T02:13:45;98710.59;;;25.02;55.90
8416;BME280;4245;42.120;24.732;2023-07-31T02:16:15;98715.00;;;24.97;56.15
8416;BME280;4245;42.120;24.732;2023-07-31T02:18:42;98709.78;;;25.02;55.80
8416;BME280;4245;42.120;24.732;2023-07-31T02:21:09;98704.72;;;25.12;55.64
8416;BME280;4245;42.120;24.732;2023-07-31T02:23:36;98704.09;;;25.10;56.11
8416;BME280;4245;42.120;24.732;2023-07-31T02:26:03;98712.88;;;25.05;57.90
8416;BME280;4245;42.120;24.732;2023-07-31T02:28:30;98704.97;;;24.91;60.21
8416;BME280;4245;42.120;24.732;2023-07-31T02:30:57;98699.31;;;24.86;62.31
8416;BME280;4245;42.120;24.732;2023-07-31T02:33:26;98687.63;;;24.92;65.90
8416;BME280;4245;42.120;24.732;2023-07-31T02:35:53;98687.41;;;25.00;67.23
8416;BME280;4245;42.120;24.732;2023-07-31T02:38:20;98673.59;;;25.01;69.52
8416;BME280;4245;42.120;24.732;2023-07-31T02:40:47;98692.81;;;25.06;70.67
8416;BME280;4245;42.120;24.732;2023-07-31T02:43:14;98680.06;;;25.00;71.89
8416;BME280;4245;42.120;24.732;2023-07-31T02:45:41;98689.06;;;25.07;72.65
8416;BME280;4245;42.120;24.732;2023-07-31T02:48:08;98684.28;;;24.83;74.34
8416;BME280;4245;42.120;24.732;2023-07-31T02:50:36;98683.03;;;24.86;75.37
8416;BME280;4245;42.120;24.732;2023-07-31T02:53:03;98680.94;;;24.94;75.48
8416;BME280;4245;42.120;24.732;2023-07-31T02:55:30;98684.88;;;24.98;76.30
8416;BME280;4245;42.120;24.732;2023-07-31T02:57:58;98677.16;;;24.95;77.48
8416;BME280;4245;42.120;24.732;2023-07-31T03:00:25;98686.56;;;24.99;77.53
8416;BME280;4245;42.120;24.732;2023-07-31T03:02:52;98670.03;;;25.07;77.34
8416;BME280;4245;42.120;24.732;2023-07-31T03:05:19;98677.09;;;25.22;76.58
8416;BME280;4245;42.120;24.732;2023-07-31T03:07:47;98672.31;;;25.10;76.99
8416;BME280;4245;42.120;24.732;2023-07-31T03:10:14;98675.81;;;25.18;77.01
8416;BME280;4245;42.120;24.732;2023-07-31T03:12:41;98676.19;;;25.28;77.58
8416;BME280;4245;42.120;24.732;2023-07-31T03:15:09;98684.22;;;25.09;83.98
8416;BME280;4245;42.120;24.732;2023-07-31T03:17:36;98680.75;;;24.83;89.68
8416;BME280;4245;42.120;24.732;2023-07-31T03:20:04;98684.53;;;24.62;100.00
8416;BME280;4245;42.120;24.732;2023-07-31T03:22:31;98675.41;;;24.30;100.00
8416;BME280;4245;42.120;24.732;2023-07-31T03:24:59;98677.06;;;24.24;100.00
8416;BME280;4245;42.120;24.732;2023-07-31T03:27:26;98680.78;;;24.04;100.00
8416;BME280;4245;42.120;24.732;2023-07-31T03:29:53;98692.47;;;23.98;100.00
8416;BME280;4245;42.120;24.732;2023-07-31T03:32:20;98690.56;;;23.92;100.00
8416;BME280;4245;42.120;24.732;2023-07-31T03:34:47;98696.44;;;23.95;100.00
8416;BME280;4245;42.120;24.732;2023-07-31T03:37:14;98708.09;;;24.02;100.00
8416;BME280;4245;42.120;24.732;2023-07-31T03:39:41;98706.84;;;23.72;100.00
8416;BME280;4245;42.120;24.732;2023-07-31T03:42:09;98713.47;;;23.63;100.00
8416;BME280;4245;42.120;24.732;2023-07-31T03:44:37;98731.78;;;23.48;100.00
8416;BME280;4245;42.120;24.732;2023-07-31T03:47:04;98730.94;;;23.06;100.00
8416;BME280;4245;42.120;24.732;2023-07-31T03:49:31;98742.66;;;22.79;100.00
8416;BME280;4245;42.120;24.732;2023-07-31T03:51:58;98729.88;;;22.45;100.00
8416;BME280;4245;42.120;24.732;2023-07-31T03:54:26;98745.03;;;22.39;100.00
8416;BME280;4245;42.120;24.732;2023-07-31T03:56:53;98742.91;;;22.35;100.00
8416;BME280;4245;42.120;24.732;2023-07-31T03:59:22;98744.84;;;22.41;100.00
8416;BME280;4245;42.120;24.732;2023-07-31T04:01:49;98741.31;;;22.19;100.00
8416;BME280;4245;42.120;24.732;2023-07-31T04:04:16;98743.81;;;21.99;100.00
8416;BME280;4245;42.120;24.732;2023-07-31T04:06:43;98750.72;;;22.02;100.00
8416;BME280;4245;42.120;24.732;2023-07-31T04:09:10;98754.03;;;21.83;100.00
8416;BME280;4245;42.120;24.732;2023-07-31T04:11:36;98756.53;;;21.84;100.00
8416;BME280;4245;42.120;24.732;2023-07-31T04:14:04;98762.94;;;21.98;100.00
8416;BME280;4245;42.120;24.732;2023-07-31T04:16:33;98763.50;;;21.93;100.00
8416;BME280;4245;42.120;24.732;2023-07-31T04:18:59;98762.59;;;21.86;100.00
8416;BME280;4245;42.120;24.732;2023-07-31T04:21:28;98763.75;;;21.77;100.00
8416;BME280;4245;42.120;24.732;2023-07-31T04:23:55;98765.69;;;21.83;100.00
8416;BME280;4245;42.120;24.732;2023-07-31T04:26:23;98765.22;;;21.80;100.00
8416;BME280;4245;42.120;24.732;2023-07-31T04:28:50;98770.19;;;21.76;100.00
8416;BME280;4245;42.120;24.732;2023-07-31T04:31:17;98767.44;;;21.91;100.00
8416;BME280;4245;42.120;24.732;2023-07-31T04:33:46;98770.28;;;22.04;100.00
8416;BME280;4245;42.120;24.732;2023-07-31T04:36:13;98764.63;;;22.20;100.00
8416;BME280;4245;42.120;24.732;2023-07-31T04:38:40;98771.84;;;22.34;100.00
8416;BME280;4245;42.120;24.732;2023-07-31T04:41:07;98770.16;;;22.33;100.00
8416;BME280;4245;42.120;24.732;2023-07-31T04:43:34;98761.78;;;22.28;100.00
8416;BME280;4245;42.120;24.732;2023-07-31T04:46:04;98762.34;;;22.45;100.00
8416;BME280;4245;42.120;24.732;2023-07-31T04:48:31;98760.59;;;22.59;100.00
8416;BME280;4245;42.120;24.732;2023-07-31T04:51:00;98767.53;;;22.68;100.00
8416;BME280;4245;42.120;24.732;2023-07-31T04:53:26;98765.00;;;22.87;100.00
8416;BME280;4245;42.120;24.732;2023-07-31T04:55:53;98767.09;;;22.92;100.00
8416;BME280;4245;42.120;24.732;2023-07-31T04:58:20;98771.97;;;23.03;100.00
8416;BME280;4245;42.120;24.732;2023-07-31T05:00:47;98772.03;;;23.16;100.00
8416;BME280;4245;42.120;24.732;2023-07-31T05:03:14;98770.84;;;23.25;100.00
8416;BME280;4245;42.120;24.732;2023-07-31T05:05:41;98764.78;;;23.23;100.00
8416;BME280;4245;42.120;24.732;2023-07-31T05:08:10;98758.97;;;23.26;100.00
8416;BME280;4245;42.120;24.732;2023-07-31T05:10:37;98768.00;;;23.40;100.00
8416;BME280;4245;42.120;24.732;2023-07-31T05:13:04;98757.69;;;23.57;100.00
8416;BME280;4245;42.120;24.732;2023-07-31T05:15:31;98765.84;;;23.70;100.00
8416;BME280;4245;42.120;24.732;2023-07-31T05:17:58;98763.38;;;23.81;100.00
8416;BME280;4245;42.120;24.732;2023-07-31T05:20:25;98760.47;;;23.76;100.00
8416;BME280;4245;42.120;24.732;2023-07-31T05:22:53;98764.63;;;23.79;100.00
8416;BME280;4245;42.120;24.732;2023-07-31T05:25:21;98764.44;;;23.80;100.00
8416;BME280;4245;42.120;24.732;2023-07-31T05:27:48;98769.25;;;23.98;100.00
8416;BME280;4245;42.120;24.732;2023-07-31T05:30:15;98758.59;;;23.97;100.00
8416;BME280;4245;42.120;24.732;2023-07-31T05:32:42;98774.47;;;24.06;100.00
8416;BME280;4245;42.120;24.732;2023-07-31T05:35:09;98780.81;;;24.20;100.00
8416;BME280;4245;42.120;24.732;2023-07-31T05:37:36;98777.50;;;24.44;100.00
8416;BME280;4245;42.120;24.732;2023-07-31T05:40:04;98784.38;;;24.27;100.00
8416;BME280;4245;42.120;24.732;2023-07-31T05:42:32;98786.47;;;24.32;100.00
8416;BME280;4245;42.120;24.732;2023-07-31T05:45:00;98791.25;;;24.36;100.00
8416;BME280;4245;42.120;24.732;2023-07-31T05:47:27;98785.00;;;24.55;100.00
8416;BME280;4245;42.120;24.732;2023-07-31T05:49:54;98796.31;;;24.59;100.00
8416;BME280;4245;42.120;24.732;2023-07-31T05:52:21;98793.81;;;24.97;100.00
8416;BME280;4245;42.120;24.732;2023-07-31T05:54:48;98800.84;;;25.18;100.00
8416;BME280;4245;42.120;24.732;2023-07-31T05:57:15;98798.31;;;25.36;100.00
8416;BME280;4245;42.120;24.732;2023-07-31T05:59:43;98798.28;;;25.56;100.00
8416;BME280;4245;42.120;24.732;2023-07-31T06:02:10;98790.56;;;25.90;100.00
8416;BME280;4245;42.120;24.732;2023-07-31T06:04:37;98796.91;;;26.16;100.00
8416;BME280;4245;42.120;24.732;2023-07-31T06:07:04;98796.06;;;26.28;100.00
8416;BME280;4245;42.120;24.732;2023-07-31T06:09:31;98792.56;;;26.71;100.00
8416;BME280;4245;42.120;24.732;2023-07-31T06:11:58;98796.22;;;27.08;100.00
8416;BME280;4245;42.120;24.732;2023-07-31T06:14:25;98789.38;;;27.23;100.00
8416;BME280;4245;42.120;24.732;2023-07-31T06:16:53;98799.59;;;27.28;100.00
8416;BME280;4245;42.120;24.732;2023-07-31T06:19:20;98790.41;;;27.22;100.00
8416;BME280;4245;42.120;24.732;2023-07-31T06:21:48;98793.47;;;27.33;100.00
8416;BME280;4245;42.120;24.732;2023-07-31T06:24:15;98801.44;;;27.34;100.00
8416;BME280;4245;42.120;24.732;2023-07-31T06:26:45;98796.72;;;27.23;100.00
8416;BME280;4245;42.120;24.732;2023-07-31T06:29:12;98810.34;;;27.41;100.00
8416;BME280;4245;42.120;24.732;2023-07-31T06:31:40;98798.53;;;27.11;100.00
8416;BME280;4245;42.120;24.732;2023-07-31T06:34:09;98796.72;;;27.23;100.00
8416;BME280;4245;42.120;24.732;2023-07-31T06:36:36;98799.22;;;27.43;100.00
8416;BME280;4245;42.120;24.732;2023-07-31T06:39:03;98790.69;;;27.57;100.00
8416;BME280;4245;42.120;24.732;2023-07-31T06:41:30;98796.34;;;27.38;100.00
8416;BME280;4245;42.120;24.732;2023-07-31T06:43:57;98791.63;;;27.27;100.00
8416;BME280;4245;42.120;24.732;2023-07-31T06:46:24;98793.16;;;27.41;100.00
8416;BME280;4245;42.120;24.732;2023-07-31T06:48:51;98794.63;;;27.61;100.00
8416;BME280;4245;42.120;24.732;2023-07-31T06:51:19;98791.47;;;28.13;94.53
8416;BME280;4245;42.120;24.732;2023-07-31T06:53:46;98791.03;;;28.09;84.35
8416;BME280;4245;42.120;24.732;2023-07-31T06:56:13;98789.00;;;28.04;81.88
8416;BME280;4245;42.120;24.732;2023-07-31T06:58:41;98800.41;;;28.01;80.94
8416;BME280;4245;42.120;24.732;2023-07-31T07:01:08;98794.44;;;27.93;80.96
8416;BME280;4245;42.120;24.732;2023-07-31T07:03:35;98789.44;;;28.20;80.37
8416;BME280;4245;42.120;24.732;2023-07-31T07:06:02;98789.50;;;28.43;76.50
8416;BME280;4245;42.120;24.732;2023-07-31T07:08:30;98792.53;;;28.65;76.07
8416;BME280;4245;42.120;24.732;2023-07-31T07:10:57;98806.91;;;28.60;74.39
8416;BME280;4245;42.120;24.732;2023-07-31T07:13:25;98794.84;;;28.38;76.91
8416;BME280;4245;42.120;24.732;2023-07-31T07:15:52;98792.84;;;28.57;75.26
8416;BME280;4245;42.120;24.732;2023-07-31T07:18:19;98796.41;;;28.99;72.25
8416;BME280;4245;42.120;24.732;2023-07-31T07:20:47;98796.03;;;29.07;72.10
8416;BME280;4245;42.120;24.732;2023-07-31T07:23:14;98795.91;;;29.25;72.05
8416;BME280;4245;42.120;24.732;2023-07-31T07:25:43;98805.38;;;29.69;69.76
8416;BME280;4245;42.120;24.732;2023-07-31T07:28:10;98800.91;;;29.51;69.36
8416;BME280;4245;42.120;24.732;2023-07-31T07:30:37;98810.00;;;29.68;70.08
8416;BME280;4245;42.120;24.732;2023-07-31T07:33:05;98808.88;;;28.94;69.57
8416;BME280;4245;42.120;24.732;2023-07-31T07:35:33;98801.47;;;28.72;72.83
8416;BME280;4245;42.120;24.732;2023-07-31T07:38:00;98808.66;;;29.08;70.95
8416;BME280;4245;42.120;24.732;2023-07-31T07:40:27;98798.19;;;28.93;71.47
8416;BME280;4245;42.120;24.732;2023-07-31T07:42:55;98801.13;;;28.08;75.47
8416;BME280;4245;42.120;24.732;2023-07-31T07:45:22;98792.94;;;28.08;76.82
8416;BME280;4245;42.120;24.732;2023-07-31T07:47:49;98794.13;;;28.42;75.94
8416;BME280;4245;42.120;24.732;2023-07-31T07:50:16;98794.38;;;28.82;73.69
8416;BME280;4245;42.120;24.732;2023-07-31T07:52:43;98789.38;;;28.79;73.56
8416;BME280;4245;42.120;24.732;2023-07-31T07:55:10;98809.56;;;28.78;71.73
8416;BME280;4245;42.120;24.732;2023-07-31T07:57:37;98793.88;;;28.74;72.47
8416;BME280;4245;42.120;24.732;2023-07-31T08:00:07;98788.91;;;29.06;69.81
8416;BME280;4245;42.120;24.732;2023-07-31T08:02:36;98794.00;;;29.25;69.57
8416;BME280;4245;42.120;24.732;2023-07-31T08:05:03;98793.06;;;29.31;67.36
8416;BME280;4245;42.120;24.732;2023-07-31T08:07:30;98793.53;;;29.17;67.87
8416;BME280;4245;42.120;24.732;2023-07-31T08:09:57;98795.38;;;29.63;66.89
8416;BME280;4245;42.120;24.732;2023-07-31T08:12:24;98789.66;;;30.61;63.46
8416;BME280;4245;42.120;24.732;2023-07-31T08:14:50;98791.47;;;30.89;61.40
8416;BME280;4245;42.120;24.732;2023-07-31T08:17:19;98785.91;;;30.22;61.49
8416;BME280;4245;42.120;24.732;2023-07-31T08:19:46;98786.03;;;29.99;63.62
8416;BME280;4245;42.120;24.732;2023-07-31T08:22:13;98788.31;;;29.78;64.26
8416;BME280;4245;42.120;24.732;2023-07-31T08:24:40;98785.63;;;29.67;65.45
8416;BME280;4245;42.120;24.732;2023-07-31T08:27:07;98778.53;;;30.22;62.71
8416;BME280;4245;42.120;24.732;2023-07-31T08:29:34;98779.69;;;30.27;61.48
8416;BME280;4245;42.120;24.732;2023-07-31T08:32:01;98780.06;;;30.30;61.78
8416;BME280;4245;42.120;24.732;2023-07-31T08:34:29;98790.41;;;30.56;60.23
8416;BME280;4245;42.120;24.732;2023-07-31T08:36:56;98781.91;;;30.75;57.67
8416;BME280;4245;42.120;24.732;2023-07-31T08:39:23;98781.66;;;31.26;56.43
8416;BME280;4245;42.120;24.732;2023-07-31T08:41:50;98793.59;;;31.75;53.04
8416;BME280;4245;42.120;24.732;2023-07-31T08:44:17;98782.31;;;31.55;53.31
8416;BME280;4245;42.120;24.732;2023-07-31T08:46:45;98787.09;;;32.08;50.48
8416;BME280;4245;42.120;24.732;2023-07-31T08:49:13;98777.19;;;32.34;49.96
8416;BME280;4245;42.120;24.732;2023-07-31T08:51:42;98779.31;;;32.81;49.29
8416;BME280;4245;42.120;24.732;2023-07-31T08:54:09;98788.00;;;33.46;46.94
8416;BME280;4245;42.120;24.732;2023-07-31T08:56:36;98780.06;;;33.50;46.62
8416;BME280;4245;42.120;24.732;2023-07-31T08:59:04;98786.97;;;33.57;45.90
8416;BME280;4245;42.120;24.732;2023-07-31T09:01:35;98780.72;;;33.20;45.87
8416;BME280;4245;42.120;24.732;2023-07-31T09:04:05;98791.25;;;33.33;45.73
8416;BME280;4245;42.120;24.732;2023-07-31T09:06:33;98784.25;;;33.62;44.74
8416;BME280;4245;42.120;24.732;2023-07-31T09:09:02;98774.84;;;33.58;44.75
8416;BME280;4245;42.120;24.732;2023-07-31T09:11:31;98771.44;;;33.36;45.42
8416;BME280;4245;42.120;24.732;2023-07-31T09:13:58;98777.38;;;33.18;46.25
8416;BME280;4245;42.120;24.732;2023-07-31T09:16:28;98780.28;;;33.01;45.80
8416;BME280;4245;42.120;24.732;2023-07-31T09:18:57;98782.28;;;32.47;45.69
8416;BME280;4245;42.120;24.732;2023-07-31T09:21:27;98779.56;;;32.79;45.61
8416;BME280;4245;42.120;24.732;2023-07-31T09:23:54;98772.38;;;33.62;43.90
8416;BME280;4245;42.120;24.732;2023-07-31T09:26:32;98782.09;;;33.70;43.73
8416;BME280;4245;42.120;24.732;2023-07-31T09:29:01;98769.28;;;33.43;43.77
8416;BME280;4245;42.120;24.732;2023-07-31T09:31:38;98766.31;;;33.13;43.97
8416;BME280;4245;42.120;24.732;2023-07-31T09:34:06;98765.16;;;33.51;42.35
8416;BME280;4245;42.120;24.732;2023-07-31T09:36:39;98764.63;;;33.49;42.27
8416;BME280;4245;42.120;24.732;2023-07-31T09:39:09;98762.63;;;33.96;41.26
8416;BME280;4245;42.120;24.732;2023-07-31T09:41:38;98761.38;;;34.65;40.36
8416;BME280;4245;42.120;24.732;2023-07-31T09:44:05;98756.94;;;34.38;40.24
8416;BME280;4245;42.120;24.732;2023-07-31T09:46:34;98752.50;;;34.37;40.57
8416;BME280;4245;42.120;24.732;2023-07-31T09:49:07;98744.09;;;33.72;42.97
8416;BME280;4245;42.120;24.732;2023-07-31T09:51:35;98755.31;;;34.78;39.72
8416;BME280;4245;42.120;24.732;2023-07-31T09:54:08;98752.38;;;35.59;38.26
8416;BME280;4245;42.120;24.732;2023-07-31T09:56:40;98765.16;;;36.14;36.85
8416;BME280;4245;42.120;24.732;2023-07-31T09:59:08;98757.25;;;35.87;36.84
8416;BME280;4245;42.120;24.732;2023-07-31T10:01:37;98746.31;;;35.57;37.66
8416;BME280;4245;42.120;24.732;2023-07-31T10:04:05;98757.69;;;35.45;38.23
8416;BME280;4245;42.120;24.732;2023-07-31T10:06:34;98753.34;;;34.63;39.95
8416;BME280;4245;42.120;24.732;2023-07-31T10:09:02;98751.16;;;34.35;40.05
8416;BME280;4245;42.120;24.732;2023-07-31T10:11:30;98754.66;;;34.15;40.09
8416;BME280;4245;42.120;24.732;2023-07-31T10:14:02;98741.97;;;34.14;40.41
8416;BME280;4245;42.120;24.732;2023-07-31T10:16:30;98740.41;;;34.79;39.30
8416;BME280;4245;42.120;24.732;2023-07-31T10:18:58;98742.06;;;35.85;36.60
8416;BME280;4245;42.120;24.732;2023-07-31T10:21:26;98743.53;;;35.67;36.51
8416;BME280;4245;42.120;24.732;2023-07-31T10:23:53;98735.97;;;35.18;36.86
8416;BME280;4245;42.120;24.732;2023-07-31T10:26:23;98722.97;;;35.24;37.38
8416;BME280;4245;42.120;24.732;2023-07-31T10:28:52;98718.81;;;35.06;38.21
8416;BME280;4245;42.120;24.732;2023-07-31T10:31:21;98720.88;;;35.60;37.31
8416;BME280;4245;42.120;24.732;2023-07-31T10:33:48;98727.34;;;35.94;36.29
8416;BME280;4245;42.120;24.732;2023-07-31T10:36:18;98717.00;;;36.20;36.13
8416;BME280;4245;42.120;24.732;2023-07-31T10:38:45;98709.94;;;36.38;36.43
8416;BME280;4245;42.120;24.732;2023-07-31T10:41:12;98700.19;;;36.79;36.07
8416;BME280;4245;42.120;24.732;2023-07-31T10:43:39;98706.44;;;37.66;34.62
8416;BME280;4245;42.120;24.732;2023-07-31T10:46:07;98709.91;;;38.65;32.53
8416;BME280;4245;42.120;24.732;2023-07-31T10:48:37;98698.91;;;38.09;32.91
8416;BME280;4245;42.120;24.732;2023-07-31T10:51:07;98711.22;;;37.98;33.30
8416;BME280;4245;42.120;24.732;2023-07-31T10:53:36;98695.09;;;38.38;32.38
8416;BME280;4245;42.120;24.732;2023-07-31T10:56:04;98687.78;;;38.93;31.10
8416;BME280;4245;42.120;24.732;2023-07-31T10:58:32;98691.72;;;38.92;31.35
8416;BME280;4245;42.120;24.732;2023-07-31T11:01:01;98687.69;;;37.96;31.98
8416;BME280;4245;42.120;24.732;2023-07-31T11:03:43;98682.25;;;35.45;34.60
8416;BME280;4245;42.120;24.732;2023-07-31T11:06:11;98676.41;;;34.72;36.59
8416;BME280;4245;42.120;24.732;2023-07-31T11:08:42;98685.19;;;35.63;35.37
8416;BME280;4245;42.120;24.732;2023-07-31T11:11:11;98674.06;;;36.56;33.99
8416;BME280;4245;42.120;24.732;2023-07-31T11:13:43;98672.94;;;36.63;32.88
8416;BME280;4245;42.120;24.732;2023-07-31T11:16:12;98665.59;;;36.77;32.92
8416;BME280;4245;42.120;24.732;2023-07-31T11:18:40;98684.97;;;37.72;31.96
8416;BME280;4245;42.120;24.732;2023-07-31T11:21:12;98681.84;;;37.36;31.24
8416;BME280;4245;42.120;24.732;2023-07-31T11:23:39;98701.31;;;37.55;31.65
8416;BME280;4245;42.120;24.732;2023-07-31T11:26:07;98701.69;;;38.60;30.77
8416;BME280;4245;42.120;24.732;2023-07-31T11:28:35;98690.88;;;39.19;32.74
8416;BME280;4245;42.120;24.732;2023-07-31T11:31:02;98688.09;;;38.59;33.67
8416;BME280;4245;42.120;24.732;2023-07-31T11:33:29;98686.47;;;37.64;35.97
8416;BME280;4245;42.120;24.732;2023-07-31T11:35:57;98679.84;;;37.41;36.46
8416;BME280;4245;42.120;24.732;2023-07-31T11:38:26;98673.50;;;37.17;37.29
8416;BME280;4245;42.120;24.732;2023-07-31T11:40:54;98685.88;;;37.67;36.90
8416;BME280;4245;42.120;24.732;2023-07-31T11:43:22;98687.59;;;38.38;35.17
8416;BME280;4245;42.120;24.732;2023-07-31T11:45:51;98680.56;;;38.46;35.05
8416;BME280;4245;42.120;24.732;2023-07-31T11:48:20;98678.72;;;38.87;33.96
8416;BME280;4245;42.120;24.732;2023-07-31T11:50:48;98679.88;;;39.27;33.13
8416;BME280;4245;42.120;24.732;2023-07-31T11:53:17;98680.50;;;39.51;33.00
8416;BME280;4245;42.120;24.732;2023-07-31T11:55:47;98680.16;;;39.80;31.94
8416;BME280;4245;42.120;24.732;2023-07-31T11:58:15;98670.00;;;38.94;33.18
8416;BME280;4245;42.120;24.732;2023-07-31T12:00:43;98679.22;;;37.87;35.37
8416;BME280;4245;42.120;24.732;2023-07-31T12:03:11;98678.22;;;37.17;36.50
8416;BME280;4245;42.120;24.732;2023-07-31T12:05:38;98666.59;;;36.57;37.25
8416;BME280;4245;42.120;24.732;2023-07-31T12:08:09;98671.94;;;36.48;37.51
8416;BME280;4245;42.120;24.732;2023-07-31T12:10:37;98669.16;;;37.06;36.50
8416;BME280;4245;42.120;24.732;2023-07-31T12:13:08;98663.94;;;37.90;35.05
8416;BME280;4245;42.120;24.732;2023-07-31T12:15:40;98667.75;;;38.63;33.99
8416;BME280;4245;42.120;24.732;2023-07-31T12:18:09;98655.59;;;38.92;33.80
8416;BME280;4245;42.120;24.732;2023-07-31T12:20:40;98652.91;;;39.14;33.24
8416;BME280;4245;42.120;24.732;2023-07-31T12:23:13;98653.25;;;39.40;32.42
8416;BME280;4245;42.120;24.732;2023-07-31T12:25:40;98661.00;;;39.65;31.59
8416;BME280;4245;42.120;24.732;2023-07-31T12:28:09;98649.41;;;39.99;31.79
8416;BME280;4245;42.120;24.732;2023-07-31T12:30:39;98652.03;;;40.62;30.99
8416;BME280;4245;42.120;24.732;2023-07-31T12:33:11;98648.31;;;41.06;29.96
8416;BME280;4245;42.120;24.732;2023-07-31T12:35:41;98649.66;;;41.09;29.42
8416;BME280;4245;42.120;24.732;2023-07-31T12:38:08;98639.50;;;40.82;29.94
8416;BME280;4245;42.120;24.732;2023-07-31T12:40:37;98640.66;;;41.12;30.05
8416;BME280;4245;42.120;24.732;2023-07-31T12:43:04;98647.59;;;41.40;29.07
8416;BME280;4245;42.120;24.732;2023-07-31T12:45:33;98643.56;;;41.07;29.04
8416;BME280;4245;42.120;24.732;2023-07-31T12:48:00;98638.66;;;41.52;27.47
8416;BME280;4245;42.120;24.732;2023-07-31T12:50:27;98642.97;;;41.27;27.05
8416;BME280;4245;42.120;24.732;2023-07-31T12:52:54;98637.50;;;40.21;27.78
8416;BME280;4245;42.120;24.732;2023-07-31T12:55:21;98631.94;;;39.08;29.58
8416;BME280;4245;42.120;24.732;2023-07-31T12:57:49;98644.50;;;38.27;30.28
8416;BME280;4245;42.120;24.732;2023-07-31T13:00:16;98633.50;;;37.47;30.93
8416;BME280;4245;42.120;24.732;2023-07-31T13:02:44;98632.78;;;37.18;31.57
8416;BME280;4245;42.120;24.732;2023-07-31T13:05:11;98635.47;;;37.65;31.53
8416;BME280;4245;42.120;24.732;2023-07-31T13:07:39;98632.69;;;38.35;30.36
8416;BME280;4245;42.120;24.732;2023-07-31T13:10:07;98629.22;;;38.11;30.18
8416;BME280;4245;42.120;24.732;2023-07-31T13:12:34;98629.47;;;37.77;32.45
8416;BME280;4245;42.120;24.732;2023-07-31T13:15:01;98619.78;;;37.37;35.22